createdAt,value
2018-06-13T00:02:00.350Z,2.67
2018-06-13T00:04:05.710Z,2.07
2018-06-13T00:06:10.661Z,2.70
2018-06-13T00:08:15.886Z,2.17
2018-06-13T00:10:21.015Z,2.10
2018-06-13T00:12:26.076Z,2.07
2018-06-13T00:14:31.075Z,2.00
2018-06-13T00:16:36.134Z,2.10
2018-06-13T00:18:41.158Z,1.87
2018-06-13T00:20:46.205Z,2.10
2018-06-13T00:22:51.193Z,2.37
2018-06-13T00:24:56.076Z,2.23
2018-06-13T00:27:01.058Z,2.10
2018-06-13T00:29:06.380Z,2.00
2018-06-13T00:31:11.483Z,2.00
2018-06-13T00:33:16.511Z,1.93
2018-06-13T00:35:21.850Z,2.23
2018-06-13T00:37:26.827Z,1.57
2018-06-13T00:39:32.249Z,2.23
2018-06-13T00:41:37.291Z,2.00
2018-06-13T00:43:42.629Z,2.10
2018-06-13T00:45:48.092Z,1.80
2018-06-13T00:47:53.053Z,2.43
2018-06-13T00:49:58.015Z,2.20
2018-06-13T00:52:03.948Z,2.27
2018-06-13T00:54:09.191Z,2.00
2018-06-13T00:56:35.177Z,2.43
2018-06-13T00:58:40.165Z,1.57
2018-06-13T01:00:46.734Z,1.37
2018-06-13T01:02:51.598Z,2.07
2018-06-13T01:04:57.218Z,1.40
2018-06-13T01:07:02.818Z,1.70
2018-06-13T01:09:09.119Z,1.63
2018-06-13T01:11:14.215Z,1.67
2018-06-13T01:13:19.378Z,1.80
2018-06-13T01:15:24.583Z,1.93
2018-06-13T01:17:29.899Z,1.70
2018-06-13T01:19:34.978Z,1.80
2018-06-13T01:21:40.164Z,2.20
2018-06-13T01:23:45.115Z,2.20
2018-06-13T01:25:50.488Z,1.97
2018-06-13T01:27:55.421Z,2.17
2018-06-13T01:30:02.518Z,2.17
2018-06-13T01:32:07.451Z,2.03
2018-06-13T01:34:12.730Z,1.67
2018-06-13T01:36:18.108Z,1.73
2018-06-13T01:38:23.338Z,1.83
2018-06-13T01:40:28.289Z,2.40
2018-06-13T01:42:33.390Z,2.00
2018-06-13T01:44:38.409Z,2.97
2018-06-13T01:46:43.273Z,2.40
2018-06-13T01:48:48.279Z,2.23
2018-06-13T01:50:57.533Z,2.03
2018-06-13T01:53:02.570Z,1.93
2018-06-13T01:55:07.565Z,2.50
2018-06-13T01:57:12.579Z,2.10
2018-06-13T01:59:17.530Z,1.80
2018-06-13T02:01:22.432Z,2.23
2018-06-13T02:03:27.402Z,2.00
2018-06-13T02:05:32.848Z,2.30
2018-06-13T02:07:37.943Z,1.70
2018-06-13T02:09:43.078Z,1.70
2018-06-13T02:11:48.050Z,2.93
2018-06-13T02:13:53.502Z,2.77
2018-06-13T02:15:58.481Z,1.83
2018-06-13T02:18:03.964Z,1.97
2018-06-13T02:20:08.943Z,2.17
2018-06-13T02:22:14.241Z,1.90
2018-06-13T02:24:19.166Z,2.60
2018-06-13T02:26:24.539Z,2.77
2018-06-13T02:28:29.962Z,1.77
2018-06-13T02:30:34.838Z,1.80
2018-06-13T02:32:42.563Z,2.40
2018-06-13T02:34:47.923Z,2.00
2018-06-13T02:36:52.863Z,2.10
2018-06-13T02:38:57.911Z,2.27
2018-06-13T02:41:02.869Z,1.73
2018-06-13T02:43:07.849Z,2.00
2018-06-13T02:45:12.783Z,2.20
2018-06-13T02:47:18.138Z,1.93
2018-06-13T02:49:23.055Z,2.13
2018-06-13T02:51:28.719Z,2.13
2018-06-13T02:53:34.054Z,2.00
2018-06-13T02:55:39.001Z,2.77
2018-06-13T02:57:43.924Z,2.07
2018-06-13T02:59:48.896Z,1.70
2018-06-13T03:01:53.909Z,2.23
2018-06-13T03:03:59.421Z,2.00
2018-06-13T03:06:04.397Z,2.00
2018-06-13T03:08:09.381Z,2.20
2018-06-13T03:10:14.339Z,2.80
2018-06-13T03:12:19.309Z,2.53
2018-06-13T03:14:24.319Z,2.20
2018-06-13T03:16:29.723Z,2.27
2018-06-13T03:18:34.673Z,1.53
2018-06-13T03:20:39.575Z,1.80
2018-06-13T03:22:45.210Z,1.67
2018-06-13T03:24:50.917Z,1.93
2018-06-13T03:26:56.109Z,1.73
2018-06-13T03:29:01.103Z,1.67
2018-06-13T03:31:06.018Z,1.50
2018-06-13T03:33:10.928Z,1.20
2018-06-13T03:35:15.881Z,1.80
2018-06-13T03:37:21.114Z,1.60
2018-06-13T03:39:26.440Z,1.60
2018-06-13T03:41:31.738Z,1.97
2018-06-13T03:43:36.245Z,1.37
2018-06-13T03:45:41.014Z,1.93
2018-06-13T03:47:46.317Z,2.20
2018-06-13T03:49:51.630Z,1.50
2018-06-13T03:51:56.591Z,1.20
2018-06-13T03:54:01.652Z,1.23
2018-06-13T03:56:06.611Z,1.30
2018-06-13T03:58:11.565Z,1.63
2018-06-13T04:00:16.468Z,1.30
2018-06-13T04:02:21.414Z,1.30
2018-06-13T04:04:26.340Z,1.33
2018-06-13T04:06:31.214Z,1.00
2018-06-13T04:08:36.308Z,0.80
2018-06-13T04:10:41.273Z,1.10
2018-06-13T04:12:46.160Z,1.23
2018-06-13T04:14:51.249Z,1.40
2018-06-13T04:16:56.255Z,0.90
2018-06-13T04:19:01.447Z,0.90
2018-06-13T04:21:07.288Z,1.03
2018-06-13T04:23:12.221Z,1.03
2018-06-13T04:25:17.134Z,1.60
2018-06-13T04:27:23.059Z,1.47
2018-06-13T04:29:28.032Z,1.83
2018-06-13T04:31:33.338Z,1.77
2018-06-13T04:33:38.281Z,1.77
2018-06-13T04:35:43.130Z,1.50
2018-06-13T04:37:48.545Z,1.60
2018-06-13T04:39:53.504Z,1.40
2018-06-13T04:42:00.546Z,1.80
2018-06-13T04:44:05.825Z,1.33
2018-06-13T04:46:11.010Z,2.03
2018-06-13T04:48:15.966Z,1.13
2018-06-13T04:50:20.914Z,1.50
2018-06-13T04:52:25.824Z,1.50
2018-06-13T04:54:30.243Z,1.13
2018-06-13T04:56:35.957Z,1.47
2018-06-13T04:58:42.071Z,1.30
2018-06-13T05:00:47.441Z,2.13
2018-06-13T05:02:52.573Z,1.30
2018-06-13T05:04:58.057Z,1.90
2018-06-13T05:07:03.047Z,2.00
2018-06-13T05:09:11.505Z,1.53
2018-06-13T05:11:16.591Z,1.50
2018-06-13T05:13:21.582Z,1.20
2018-06-13T05:15:26.580Z,1.40
2018-06-13T05:17:32.184Z,1.40
2018-06-13T05:19:37.163Z,1.47
2018-06-13T05:21:42.174Z,1.27
2018-06-13T05:23:47.233Z,1.77
2018-06-13T05:25:53.108Z,2.70
2018-06-13T05:27:58.071Z,1.90
2018-06-13T05:30:03.402Z,2.23
2018-06-13T05:32:08.668Z,1.20
2018-06-13T05:34:13.082Z,1.47
2018-06-13T05:36:17.879Z,2.00
2018-06-13T05:38:23.099Z,1.73
2018-06-13T05:40:29.440Z,2.00
2018-06-13T05:42:34.868Z,1.80
2018-06-13T05:44:40.231Z,1.40
2018-06-13T05:46:45.303Z,1.93
2018-06-13T05:48:50.252Z,1.57
2018-06-13T05:50:55.639Z,2.57
2018-06-13T05:53:01.592Z,1.60
2018-06-13T05:55:06.877Z,1.92
2018-06-13T05:57:11.878Z,1.50
2018-06-13T05:59:16.789Z,1.40
2018-06-13T06:01:21.855Z,1.93
2018-06-13T06:03:26.779Z,1.50
2018-06-13T06:05:32.135Z,1.50
2018-06-13T06:07:37.073Z,1.63
2018-06-13T06:09:41.999Z,1.63
2018-06-13T06:11:47.211Z,1.40
2018-06-13T06:13:52.285Z,2.00
2018-06-13T06:15:57.265Z,1.90
2018-06-13T06:18:02.540Z,2.40
2018-06-13T06:20:09.096Z,1.80
2018-06-13T06:22:14.436Z,1.73
2018-06-13T06:24:20.134Z,1.70
2018-06-13T06:26:25.115Z,1.70
2018-06-13T06:28:31.588Z,2.83
2018-06-13T06:30:37.548Z,2.10
2018-06-13T06:32:42.513Z,2.30
2018-06-13T06:34:48.737Z,1.53
2018-06-13T06:36:54.025Z,1.73
2018-06-13T06:38:59.738Z,2.07
2018-06-13T06:41:04.686Z,2.30
2018-06-13T06:43:09.803Z,1.90
2018-06-13T06:45:15.571Z,2.10
2018-06-13T06:47:20.532Z,2.03
2018-06-13T06:49:25.504Z,1.80
2018-06-13T06:51:30.476Z,2.10
2018-06-13T06:53:35.466Z,1.80
2018-06-13T06:55:41.215Z,1.93
2018-06-13T06:57:47.230Z,2.53
2018-06-13T06:59:52.234Z,2.00
2018-06-13T07:01:57.176Z,1.90
2018-06-13T07:04:02.198Z,1.93
2018-06-13T07:06:08.663Z,2.33
2018-06-13T07:08:14.003Z,1.77
2018-06-13T07:10:18.978Z,1.77
2018-06-13T07:12:23.896Z,2.00
2018-06-13T07:14:29.613Z,1.70
2018-06-13T07:16:39.222Z,1.90
2018-06-13T07:18:44.278Z,2.20
2018-06-13T07:23:21.851Z,2.13
2018-06-13T07:25:26.831Z,1.57
2018-06-13T07:27:31.794Z,2.40
2018-06-13T07:29:36.787Z,1.90
2018-06-13T07:31:41.855Z,2.40
2018-06-13T07:33:46.789Z,1.57
2018-06-13T07:35:51.800Z,2.00
2018-06-13T07:37:56.783Z,1.70
2018-06-13T07:40:01.776Z,2.17
2018-06-13T07:42:06.870Z,2.23
2018-06-13T07:44:11.824Z,1.70
2018-06-13T07:46:16.784Z,1.60
2018-06-13T07:48:21.744Z,2.00
2018-06-13T07:50:26.691Z,1.63
2018-06-13T07:52:31.622Z,1.60
2018-06-13T07:54:36.591Z,1.70
2018-06-13T07:56:41.679Z,1.90
2018-06-13T07:58:46.659Z,1.60
2018-06-13T08:00:51.964Z,1.50
2018-06-13T08:02:56.933Z,1.63
2018-06-13T08:05:01.888Z,1.77
2018-06-13T08:07:06.963Z,1.70
2018-06-13T08:09:11.900Z,2.33
2018-06-13T08:11:16.900Z,1.63
2018-06-13T08:13:21.850Z,1.57
2018-06-13T08:15:26.810Z,1.83
2018-06-13T08:17:31.857Z,1.50
2018-06-13T08:19:36.822Z,1.70
2018-06-13T08:21:41.734Z,1.67
2018-06-13T08:23:46.700Z,1.47
2018-06-13T08:25:51.672Z,1.40
2018-06-13T08:27:56.583Z,2.40
2018-06-13T08:30:01.557Z,2.13
2018-06-13T08:32:06.532Z,1.60
2018-06-13T08:34:11.464Z,1.50
2018-06-13T08:36:16.455Z,1.20
2018-06-13T08:38:21.491Z,1.50
2018-06-13T08:40:26.358Z,1.73
2018-06-13T08:42:31.371Z,2.07
2018-06-13T08:44:36.291Z,1.23
2018-06-13T08:46:41.247Z,2.17
2018-06-13T08:48:46.255Z,1.60
2018-06-13T08:50:51.211Z,1.60
2018-06-13T08:52:56.513Z,1.30
2018-06-13T08:55:01.769Z,1.70
2018-06-13T08:57:06.700Z,1.40
2018-06-13T08:59:11.624Z,1.70
2018-06-13T09:01:16.568Z,1.73
2018-06-13T09:03:21.557Z,1.53
2018-06-13T09:05:26.513Z,2.03
2018-06-13T09:07:31.414Z,1.63
2018-06-13T09:09:36.424Z,1.47
2018-06-13T09:11:41.416Z,1.43
2018-06-13T09:13:46.346Z,2.10
2018-06-13T09:15:51.448Z,1.63
2018-06-13T09:17:56.486Z,1.20
2018-06-13T09:20:01.394Z,1.50
2018-06-13T09:22:06.440Z,1.50
2018-06-13T09:24:11.373Z,1.37
2018-06-13T09:26:16.434Z,1.53
2018-06-13T09:28:21.437Z,1.50
2018-06-13T09:30:26.345Z,1.43
2018-06-13T09:32:31.350Z,1.50
2018-06-13T09:34:36.291Z,1.70
2018-06-13T09:36:41.285Z,1.07
2018-06-13T09:38:46.297Z,1.20
2018-06-13T09:40:51.250Z,1.40
2018-06-13T09:42:56.235Z,1.60
2018-06-13T09:45:01.227Z,1.50
2018-06-13T09:47:06.908Z,1.30
2018-06-13T09:49:11.263Z,1.40
2018-06-13T09:51:16.238Z,1.43
2018-06-13T09:53:21.208Z,1.20
2018-06-13T09:55:26.148Z,1.50
2018-06-13T09:57:31.158Z,1.30
2018-06-13T09:59:36.643Z,1.50
2018-06-13T10:01:49.389Z,1.30
2018-06-13T10:03:54.317Z,1.53
2018-06-13T10:05:59.300Z,2.10
2018-06-13T10:08:04.527Z,1.40
2018-06-13T10:10:09.485Z,1.37
2018-06-13T10:12:14.402Z,1.40
2018-06-13T10:14:19.409Z,1.50
2018-06-13T10:16:24.443Z,1.70
2018-06-13T10:18:29.386Z,1.40
2018-06-13T10:20:34.335Z,2.23
2018-06-13T10:22:39.516Z,1.43
2018-06-13T10:24:44.519Z,1.47
2018-06-13T10:26:49.482Z,1.73
2018-06-13T10:28:54.488Z,2.00
2018-06-13T10:30:59.434Z,1.70
2018-06-13T10:33:04.396Z,1.60
2018-06-13T10:35:11.518Z,1.90
2018-06-13T10:37:16.499Z,1.30
2018-06-13T10:39:22.123Z,1.53
2018-06-13T10:41:27.181Z,1.80
2018-06-13T10:43:32.626Z,1.43
2018-06-13T10:45:37.579Z,1.50
2018-06-13T10:47:42.571Z,2.23
2018-06-13T10:49:47.610Z,1.77
2018-06-13T10:51:53.098Z,2.00
2018-06-13T10:53:58.371Z,1.73
2018-06-13T10:56:03.621Z,1.57
2018-06-13T10:58:08.794Z,1.80
2018-06-13T11:00:13.772Z,1.70
2018-06-13T11:02:18.751Z,1.50
2018-06-13T11:04:24.310Z,2.57
2018-06-13T11:06:29.292Z,1.80
2018-06-13T11:08:34.220Z,1.60
2018-06-13T11:10:39.283Z,1.77
2018-06-13T11:12:44.475Z,1.70
2018-06-13T11:14:50.051Z,1.80
2018-06-13T11:16:55.428Z,1.70
2018-06-13T11:19:00.539Z,1.80
2018-06-13T11:21:06.189Z,1.80
2018-06-13T11:23:11.695Z,1.70
2018-06-13T11:25:16.723Z,1.73
2018-06-13T11:27:21.675Z,1.87
2018-06-13T11:29:26.588Z,1.73
2018-06-13T11:31:32.488Z,1.70
2018-06-13T11:33:37.575Z,1.50
2018-06-13T11:35:42.474Z,1.43
2018-06-13T11:37:47.493Z,1.40
2018-06-13T11:39:52.398Z,1.90
2018-06-13T11:41:57.326Z,1.63
2018-06-13T11:44:02.265Z,1.73
2018-06-13T11:46:07.285Z,1.70
2018-06-13T11:48:12.271Z,1.70
2018-06-13T11:50:17.392Z,1.90
2018-06-13T11:52:22.435Z,1.43
2018-06-13T11:54:27.388Z,1.63
2018-06-13T11:56:32.380Z,1.83
2018-06-13T11:58:37.331Z,1.50
2018-06-13T12:00:42.291Z,1.70
2018-06-13T12:02:47.166Z,1.87
2018-06-13T12:04:52.427Z,1.50
2018-06-13T12:06:57.388Z,2.23
2018-06-13T12:09:02.359Z,1.33
2018-06-13T12:11:07.655Z,1.40
2018-06-13T12:13:12.615Z,1.53
2018-06-13T12:15:17.647Z,1.90
2018-06-13T12:17:22.736Z,1.50
2018-06-13T12:19:27.708Z,2.20
2018-06-13T12:21:32.700Z,1.47
2018-06-13T12:23:37.659Z,2.00
2018-06-13T12:25:42.924Z,1.47
2018-06-13T12:27:47.955Z,2.10
2018-06-13T12:29:53.900Z,1.47
2018-06-13T12:31:59.648Z,1.90
2018-06-13T12:34:05.115Z,2.07
2018-06-13T12:36:10.723Z,1.50
2018-06-13T12:38:15.984Z,1.73
2018-06-13T12:40:21.096Z,1.40
2018-06-13T12:42:26.419Z,1.73
2018-06-13T12:44:31.356Z,1.77
2018-06-13T12:46:36.828Z,1.80
2018-06-13T12:48:41.755Z,1.50
2018-06-13T12:50:46.802Z,1.60
2018-06-13T12:52:51.846Z,1.30
2018-06-13T12:54:56.805Z,1.77
2018-06-13T12:57:02.310Z,1.60
2018-06-13T12:59:08.120Z,1.80
2018-06-13T13:01:13.101Z,1.97
2018-06-13T13:03:18.125Z,1.70
2018-06-13T13:05:23.523Z,1.70
2018-06-13T13:07:29.136Z,1.87
2018-06-13T13:09:34.623Z,2.10
2018-06-13T13:11:39.574Z,1.90
2018-06-13T13:13:44.470Z,1.90
2018-06-13T13:15:49.482Z,1.50
2018-06-13T13:17:54.415Z,1.33
2018-06-13T13:19:59.444Z,1.60
2018-06-13T13:22:04.430Z,1.40
2018-06-13T13:24:10.447Z,1.50
2018-06-13T13:26:16.371Z,1.43
2018-06-13T13:28:22.076Z,1.77
2018-06-13T13:30:27.135Z,1.70
2018-06-13T13:32:32.805Z,1.50
2018-06-13T13:34:37.773Z,1.90
2018-06-13T13:36:42.758Z,1.93
2018-06-13T13:38:47.681Z,2.17
2018-06-13T13:40:53.630Z,1.50
2018-06-13T13:42:59.031Z,1.50
2018-06-13T13:45:04.056Z,1.70
2018-06-13T13:47:09.281Z,1.50
2018-06-13T13:49:14.457Z,2.00
2018-06-13T13:51:19.374Z,1.20
2018-06-13T13:53:25.284Z,1.50
2018-06-13T13:55:30.363Z,1.47
2018-06-13T13:57:35.370Z,1.20
2018-06-13T13:59:40.716Z,1.50
2018-06-13T14:01:45.809Z,1.60
2018-06-13T14:03:50.692Z,1.60
2018-06-13T14:05:56.363Z,1.80
2018-06-13T14:10:32.162Z,1.30
2018-06-13T14:12:37.057Z,1.60
2018-06-13T14:14:41.972Z,1.30
2018-06-13T14:16:46.891Z,1.17
2018-06-13T14:18:52.116Z,1.60
2018-06-13T14:20:57.082Z,1.20
2018-06-13T14:23:02.102Z,1.70
2018-06-13T14:25:07.083Z,1.50
2018-06-13T14:27:12.190Z,1.60
2018-06-13T14:29:17.518Z,1.43
2018-06-13T14:31:22.448Z,1.90
2018-06-13T14:33:27.476Z,1.40
2018-06-13T14:35:32.879Z,2.00
2018-06-13T14:37:37.796Z,1.20
2018-06-13T14:39:42.795Z,1.60
2018-06-13T14:41:47.770Z,1.90
2018-06-13T14:43:52.793Z,1.30
2018-06-13T14:45:57.735Z,1.40
2018-06-13T14:48:02.697Z,1.50
2018-06-13T14:50:07.674Z,1.57
2018-06-13T14:52:12.618Z,2.00
2018-06-13T14:54:17.549Z,1.60
2018-06-13T14:56:27.698Z,1.13
2018-06-13T14:58:32.620Z,1.50
2018-06-13T15:00:37.710Z,1.40
2018-06-13T15:02:42.715Z,1.40
2018-06-13T15:04:47.621Z,1.47
2018-06-13T15:06:52.610Z,1.63
2018-06-13T15:08:57.556Z,1.00
2018-06-13T15:11:02.609Z,1.70
2018-06-13T15:13:07.662Z,1.60
2018-06-13T15:15:12.575Z,1.47
2018-06-13T15:17:17.614Z,1.97
2018-06-13T15:19:22.654Z,1.53
2018-06-13T15:21:27.650Z,1.37
2018-06-13T15:23:32.630Z,1.50
2018-06-13T15:25:37.581Z,1.67
2018-06-13T15:27:42.606Z,1.63
2018-06-13T15:29:47.671Z,2.00
2018-06-13T15:31:52.688Z,1.87
2018-06-13T15:33:57.704Z,1.70
2018-06-13T15:36:02.723Z,1.50
2018-06-13T15:38:07.675Z,1.80
2018-06-13T15:40:12.628Z,1.27
2018-06-13T15:42:17.573Z,1.60
2018-06-13T15:44:22.558Z,1.60
2018-06-13T15:46:27.491Z,1.57
2018-06-13T15:48:32.424Z,1.47
2018-06-13T15:50:37.504Z,2.20
2018-06-13T15:52:42.433Z,2.10
2018-06-13T15:54:47.421Z,2.03
2018-06-13T15:56:52.373Z,1.90
2018-06-13T15:58:57.476Z,1.60
2018-06-13T16:01:02.450Z,1.53
2018-06-13T16:03:07.683Z,1.67
2018-06-13T16:05:12.660Z,1.97
2018-06-13T16:07:17.630Z,1.83
2018-06-13T16:09:22.618Z,1.90
2018-06-13T16:11:27.529Z,2.30
2018-06-13T16:13:32.551Z,1.87
2018-06-13T16:15:37.626Z,1.70
2018-06-13T16:17:42.618Z,1.70
2018-06-13T16:19:47.573Z,2.00
2018-06-13T16:21:52.575Z,1.67
2018-06-13T16:23:57.574Z,1.90
2018-06-13T16:26:03.377Z,2.40
2018-06-13T16:28:08.310Z,1.77
2018-06-13T16:30:13.334Z,1.60
2018-06-13T16:32:18.259Z,1.93
2018-06-13T16:34:23.211Z,1.70
2018-06-13T16:36:28.196Z,2.00
2018-06-13T16:38:33.254Z,2.20
2018-06-13T16:40:38.222Z,2.20
2018-06-13T16:42:43.738Z,2.10
2018-06-13T16:44:48.774Z,1.70
2018-06-13T16:46:53.783Z,1.87
2018-06-13T16:48:58.774Z,1.80
2018-06-13T16:51:14.673Z,1.90
2018-06-13T16:54:28.003Z,1.80
2018-06-13T16:56:32.482Z,2.23
2018-06-13T16:58:37.394Z,1.90
2018-06-13T17:00:42.425Z,1.63
2018-06-13T17:02:47.811Z,1.90
2018-06-13T17:04:52.786Z,2.17
2018-06-13T17:06:57.951Z,1.97
2018-06-13T17:09:02.989Z,1.80
2018-06-13T17:11:08.018Z,2.40
2018-06-13T17:13:13.034Z,1.90
2018-06-13T17:15:18.030Z,3.13
2018-06-13T17:17:22.952Z,2.00
2018-06-13T17:19:28.005Z,2.37
2018-06-13T17:21:33.131Z,2.37
2018-06-13T17:23:38.389Z,1.83
2018-06-13T17:25:43.382Z,1.83
2018-06-13T17:27:48.333Z,2.30
2018-06-13T17:29:54.196Z,1.87
2018-06-13T17:31:59.213Z,1.53
2018-06-13T17:34:04.250Z,1.90
2018-06-13T17:36:09.278Z,1.53
2018-06-13T17:38:14.211Z,2.47
2018-06-13T17:40:19.170Z,1.60
2018-06-13T17:42:24.667Z,1.73
2018-06-13T17:44:30.279Z,2.10
2018-06-13T17:46:35.243Z,1.93
2018-06-13T17:48:40.276Z,2.20
2018-06-13T17:50:45.214Z,2.33
2018-06-13T17:52:50.275Z,1.60
2018-06-13T17:54:55.210Z,2.70
2018-06-13T17:57:00.098Z,2.20
2018-06-13T17:59:05.251Z,2.07
2018-06-13T18:01:10.185Z,1.90
2018-06-13T18:03:15.171Z,2.17
2018-06-13T18:05:20.164Z,1.87
2018-06-13T18:07:25.115Z,2.27
2018-06-13T18:09:30.245Z,1.90
2018-06-13T18:11:35.267Z,2.00
2018-06-13T18:13:40.226Z,2.23
2018-06-13T18:15:45.341Z,2.47
2018-06-13T18:17:50.231Z,1.93
2018-06-13T18:19:55.894Z,2.00
2018-06-13T18:22:00.934Z,2.40
2018-06-13T18:24:06.000Z,1.93
2018-06-13T18:26:11.029Z,2.40
2018-06-13T18:28:15.985Z,2.40
2018-06-13T18:30:20.427Z,2.20
2018-06-13T18:32:25.284Z,2.00
2018-06-13T18:34:30.256Z,2.03
2018-06-13T18:36:35.147Z,2.10
2018-06-13T18:38:40.048Z,2.17
2018-06-13T18:40:45.020Z,2.27
2018-06-13T18:42:50.358Z,1.93
2018-06-13T18:44:55.344Z,2.53
2018-06-13T18:47:00.250Z,2.33
2018-06-13T18:49:05.329Z,2.17
2018-06-13T18:51:10.272Z,2.40
2018-06-13T18:53:15.240Z,2.53
2018-06-13T18:55:20.232Z,2.30
2018-06-13T18:57:25.268Z,2.00
2018-06-13T18:59:30.555Z,2.40
2018-06-13T19:01:35.531Z,2.00
2018-06-13T19:03:40.468Z,2.70
2018-06-13T19:05:45.394Z,2.43
2018-06-13T19:07:50.382Z,2.20
2018-06-13T19:09:55.337Z,2.20
2018-06-13T19:12:00.238Z,2.50
2018-06-13T19:14:05.480Z,2.07
2018-06-13T19:16:10.610Z,2.43
2018-06-13T19:18:15.559Z,2.10
2018-06-13T19:20:20.542Z,2.33
2018-06-13T19:22:25.719Z,1.90
2018-06-13T19:24:30.655Z,1.90
2018-06-13T19:26:35.595Z,1.83
2018-06-13T19:28:40.580Z,2.30
2018-06-13T19:30:45.527Z,2.60
2018-06-13T19:32:50.474Z,2.23
2018-06-13T19:34:55.438Z,1.80
2018-06-13T19:37:00.664Z,2.03
2018-06-13T19:39:07.994Z,1.90
2018-06-13T19:41:12.914Z,2.10
2018-06-13T19:43:22.923Z,2.20
2018-06-13T19:45:27.890Z,2.20
2018-06-13T19:47:38.044Z,2.40
2018-06-13T19:49:43.369Z,1.93
2018-06-13T19:51:49.186Z,1.73
2018-06-13T19:53:59.375Z,2.40
2018-06-13T19:56:07.856Z,2.23
2018-06-13T19:58:12.786Z,2.37
2018-06-13T20:00:18.131Z,2.00
2018-06-13T20:02:23.110Z,2.00
2018-06-13T20:04:33.099Z,1.97
2018-06-13T20:06:38.783Z,2.17
2018-06-13T20:08:43.811Z,1.80
2018-06-13T20:10:49.266Z,2.03
2018-06-13T20:12:59.319Z,2.10
2018-06-13T20:15:09.616Z,2.47
2018-06-13T20:17:20.103Z,2.60
2018-06-13T20:19:30.152Z,2.23
2018-06-13T20:21:35.147Z,2.27
2018-06-13T20:23:41.105Z,2.20
2018-06-13T20:25:51.247Z,1.93
2018-06-13T20:28:01.206Z,2.07
2018-06-13T20:30:11.296Z,2.03
2018-06-13T20:32:20.053Z,2.10
2018-06-13T20:34:25.593Z,2.43
2018-06-13T20:36:31.316Z,2.40
2018-06-13T20:38:36.513Z,2.23
2018-06-13T20:40:42.372Z,2.27
2018-06-13T20:42:47.414Z,2.20
2018-06-13T20:44:52.503Z,2.37
2018-06-13T20:46:57.663Z,2.50
2018-06-13T20:49:03.040Z,2.17
2018-06-13T20:51:08.343Z,2.30
2018-06-13T20:53:13.340Z,2.17
2018-06-13T20:55:18.724Z,2.03
2018-06-13T20:57:24.003Z,2.10
2018-06-13T20:59:29.078Z,2.17
2018-06-13T21:01:34.564Z,2.00
2018-06-13T21:03:39.651Z,1.80
2018-06-13T21:05:44.647Z,1.80
2018-06-13T21:07:49.895Z,1.80
2018-06-13T21:09:54.901Z,2.13
2018-06-13T21:12:00.449Z,1.97
2018-06-13T21:14:05.750Z,1.70
2018-06-13T21:16:10.248Z,1.90
2018-06-13T21:18:15.094Z,2.20
2018-06-13T21:20:20.062Z,2.00
2018-06-13T21:22:25.059Z,2.23
2018-06-13T21:24:30.205Z,2.77
2018-06-13T21:26:35.262Z,2.10
2018-06-13T21:28:40.622Z,2.20
2018-06-13T21:30:45.588Z,2.40
2018-06-13T21:32:51.995Z,2.90
2018-06-13T21:34:56.990Z,1.90
2018-06-13T21:37:02.500Z,2.20
2018-06-13T21:39:10.551Z,2.10
2018-06-13T21:41:15.774Z,2.60
2018-06-13T21:43:20.756Z,2.17
2018-06-13T21:45:25.708Z,2.30
2018-06-13T21:47:30.642Z,2.57
2018-06-13T21:49:36.015Z,2.83
2018-06-13T21:51:41.300Z,3.27
2018-06-13T21:53:46.239Z,3.00
2018-06-13T21:55:51.173Z,2.93
2018-06-13T21:57:56.134Z,3.17
2018-06-13T22:00:01.124Z,2.70
2018-06-13T22:02:06.392Z,2.90
2018-06-13T22:04:11.529Z,3.00
2018-06-13T22:06:16.910Z,2.90
2018-06-13T22:08:22.053Z,2.73
2018-06-13T22:10:26.963Z,2.70
2018-06-13T22:12:32.060Z,2.60
2018-06-13T22:14:37.171Z,2.97
2018-06-13T22:16:42.502Z,2.90
2018-06-13T22:18:47.448Z,2.80
2018-06-13T22:20:52.918Z,2.77
2018-06-13T22:22:57.946Z,2.53
2018-06-13T22:25:02.910Z,3.00
2018-06-13T22:27:07.975Z,2.93
2018-06-13T22:29:12.912Z,3.83
2018-06-13T22:31:18.276Z,2.70
2018-06-13T22:33:23.247Z,3.33
2018-06-13T22:35:28.395Z,3.20
2018-06-13T22:37:33.795Z,2.73
2018-06-13T22:39:39.081Z,2.90
2018-06-13T22:41:44.034Z,3.27
2018-06-13T22:43:49.001Z,2.80
2018-06-13T22:45:53.987Z,2.83
2018-06-13T22:47:59.008Z,2.40
2018-06-13T22:50:04.227Z,2.73
2018-06-13T22:52:09.247Z,2.87
2018-06-13T22:54:14.162Z,2.73
2018-06-13T22:56:19.116Z,2.70
2018-06-13T22:58:24.817Z,3.07
2018-06-13T23:01:08.354Z,2.97
2018-06-13T23:03:13.619Z,3.00
2018-06-13T23:05:18.598Z,2.43
2018-06-13T23:07:23.537Z,2.73
2018-06-13T23:09:28.739Z,2.47
2018-06-13T23:11:34.694Z,3.43
2018-06-13T23:13:39.631Z,3.10
2018-06-13T23:15:45.093Z,3.00
2018-06-13T23:17:50.579Z,2.80
2018-06-13T23:19:55.630Z,3.60
2018-06-13T23:22:00.602Z,3.50
2018-06-13T23:24:05.606Z,3.60
2018-06-13T23:26:11.099Z,3.43
2018-06-13T23:28:16.520Z,4.57
2018-06-13T23:30:22.049Z,3.23
2018-06-13T23:32:27.366Z,3.73
2018-06-13T23:34:32.347Z,3.90
2018-06-13T23:36:39.065Z,3.50
2018-06-13T23:38:43.987Z,3.33
2018-06-13T23:40:48.838Z,3.63
2018-06-13T23:42:53.784Z,3.73
2018-06-13T23:44:58.845Z,4.20
2018-06-13T23:47:03.758Z,3.73
2018-06-13T23:49:08.783Z,3.80
2018-06-13T23:51:14.276Z,4.30
2018-06-13T23:53:19.230Z,3.70
2018-06-13T23:55:24.259Z,4.10
2018-06-13T23:57:29.146Z,3.90
2018-06-13T23:59:34.604Z,3.87
